createdAt,value
2022-08-02T00:00:47.726Z,20.30
2022-08-02T00:03:15.972Z,20.20
2022-08-02T00:05:53.463Z,20.20
2022-08-02T00:08:22.637Z,20.10
2022-08-02T00:10:51.018Z,20.10
2022-08-02T00:13:20.566Z,20.00
2022-08-02T00:15:48.802Z,20.00
2022-08-02T00:18:17.089Z,20.00
2022-08-02T00:20:45.409Z,19.80
2022-08-02T00:23:13.729Z,19.80
2022-08-02T00:25:55.203Z,19.70
2022-08-02T00:28:27.135Z,19.70
2022-08-02T00:30:57.379Z,19.60
2022-08-02T00:34:05.773Z,19.60
2022-08-02T00:36:14.288Z,19.40
2022-08-02T00:38:42.601Z,19.30
2022-08-02T00:41:16.585Z,19.30
2022-08-02T00:43:47.617Z,19.20
2022-08-02T00:46:16.678Z,19.20
2022-08-02T00:48:45.061Z,19.10
2022-08-02T00:51:14.544Z,19.10
2022-08-02T00:53:42.974Z,19.00
2022-08-02T00:56:11.326Z,19.00
2022-08-02T00:58:39.675Z,18.90
2022-08-02T01:01:09.265Z,18.90
2022-08-02T01:03:37.546Z,18.80
2022-08-02T01:06:13.101Z,18.70
2022-08-02T01:08:41.853Z,18.70
2022-08-02T01:11:12.109Z,18.70
2022-08-02T01:13:40.686Z,18.60
2022-08-02T01:16:21.293Z,18.50
2022-08-02T01:18:54.791Z,18.50
2022-08-02T01:21:41.300Z,18.40
2022-08-02T01:24:57.203Z,18.40
2022-08-02T01:27:38.416Z,18.40
2022-08-02T01:30:08.912Z,18.30
2022-08-02T01:32:47.692Z,18.30
2022-08-02T01:35:21.153Z,18.20
2022-08-02T01:37:56.400Z,18.20
2022-08-02T01:40:30.585Z,18.20
2022-08-02T01:43:00.905Z,18.20
2022-08-02T01:45:34.938Z,18.10
2022-08-02T01:48:06.176Z,18.10
2022-08-02T01:50:37.980Z,18.10
2022-08-02T01:53:10.899Z,17.90
2022-08-02T01:55:58.373Z,17.90
2022-08-02T01:58:30.846Z,17.90
2022-08-02T02:01:02.086Z,17.90
2022-08-02T02:03:33.654Z,17.90
2022-08-02T02:06:04.682Z,17.90
2022-08-02T02:08:38.205Z,17.90
2022-08-02T02:12:10.073Z,17.90
2022-08-02T02:13:56.970Z,17.90
2022-08-02T02:16:27.360Z,17.80
2022-08-02T02:18:56.473Z,17.80
2022-08-02T02:21:24.764Z,17.80
2022-08-02T02:23:53.025Z,17.70
2022-08-02T02:26:29.692Z,17.70
2022-08-02T02:29:03.214Z,17.70
2022-08-02T02:31:38.179Z,17.60
2022-08-02T02:34:11.364Z,17.60
2022-08-02T02:36:42.952Z,17.50
2022-08-02T02:39:15.904Z,17.50
2022-08-02T02:41:45.585Z,17.50
2022-08-02T02:44:19.373Z,17.50
2022-08-02T02:46:54.172Z,17.50
2022-08-02T02:49:24.490Z,17.50
2022-08-02T02:51:54.314Z,17.50
2022-08-02T02:54:30.501Z,17.50
2022-08-02T02:57:05.793Z,17.50
2022-08-02T02:59:35.489Z,17.40
2022-08-02T03:02:05.998Z,17.40
2022-08-02T03:04:56.249Z,17.40
2022-08-02T03:07:23.601Z,17.30
2022-08-02T03:09:53.926Z,17.30
2022-08-02T03:12:30.872Z,17.30
2022-08-02T03:15:00.600Z,17.20
2022-08-02T03:17:41.806Z,17.20
2022-08-02T03:20:14.311Z,17.10
2022-08-02T03:22:43.405Z,17.10
2022-08-02T03:25:13.198Z,17.00
2022-08-02T03:27:41.719Z,17.00
2022-08-02T03:30:12.971Z,16.90
2022-08-02T03:32:47.690Z,16.90
2022-08-02T03:35:23.312Z,16.90
2022-08-02T03:37:53.919Z,16.90
2022-08-02T03:40:23.109Z,16.80
2022-08-02T03:42:52.180Z,16.80
2022-08-02T03:45:21.265Z,16.80
2022-08-02T03:47:51.674Z,16.80
2022-08-02T03:50:22.757Z,16.70
2022-08-02T03:52:51.456Z,16.70
2022-08-02T03:55:20.099Z,16.70
2022-08-02T03:57:48.464Z,16.70
2022-08-02T04:00:22.037Z,16.70
2022-08-02T04:02:52.097Z,16.70
2022-08-02T04:05:21.069Z,16.70
2022-08-02T04:08:32.498Z,16.70
2022-08-02T04:10:57.545Z,16.70
2022-08-02T04:13:31.908Z,16.60
2022-08-02T04:16:12.289Z,16.60
2022-08-02T04:18:52.283Z,16.60
2022-08-02T04:21:23.264Z,16.60
2022-08-02T04:23:52.589Z,16.60
2022-08-02T04:26:23.883Z,16.70
2022-08-02T04:28:58.133Z,16.70
2022-08-02T04:31:27.300Z,16.70
2022-08-02T04:33:57.395Z,16.80
2022-08-02T04:36:31.288Z,16.80
2022-08-02T04:39:00.426Z,16.90
2022-08-02T04:41:41.089Z,17.00
2022-08-02T04:44:12.982Z,17.00
2022-08-02T04:46:42.648Z,17.10
2022-08-02T04:49:12.760Z,17.10
2022-08-02T04:51:43.167Z,17.10
2022-08-02T04:54:12.841Z,17.20
2022-08-02T04:56:41.358Z,17.30
2022-08-02T04:59:10.522Z,17.30
2022-08-02T05:01:39.338Z,17.40
2022-08-02T05:04:07.745Z,17.50
2022-08-02T05:06:37.415Z,17.50
2022-08-02T05:09:05.832Z,17.60
2022-08-02T05:11:36.455Z,17.60
2022-08-02T05:14:05.998Z,17.70
2022-08-02T05:16:34.447Z,17.90
2022-08-02T05:19:03.328Z,18.00
2022-08-02T05:21:32.460Z,18.20
2022-08-02T05:24:02.012Z,18.30
2022-08-02T05:26:30.375Z,18.50
2022-08-02T05:29:00.885Z,18.60
2022-08-02T05:31:29.233Z,18.70
2022-08-02T05:33:57.516Z,18.80
2022-08-02T05:36:25.765Z,19.00
2022-08-02T05:38:59.667Z,19.10
2022-08-02T05:41:34.939Z,19.20
2022-08-02T05:44:04.302Z,19.30
2022-08-02T05:46:32.586Z,19.40
2022-08-02T05:49:01.388Z,19.50
2022-08-02T05:51:36.523Z,19.60
2022-08-02T05:54:16.377Z,19.60
2022-08-02T05:56:52.690Z,19.70
2022-08-02T05:59:28.934Z,19.80
2022-08-02T06:01:59.313Z,19.80
2022-08-02T06:04:35.324Z,19.90
2022-08-02T06:07:06.603Z,20.00
2022-08-02T06:09:36.065Z,20.00
2022-08-02T06:12:10.872Z,20.10
2022-08-02T06:14:39.409Z,20.10
2022-08-02T06:17:07.719Z,20.20
2022-08-02T06:19:51.092Z,20.40
2022-08-02T06:22:32.032Z,20.60
2022-08-02T06:25:11.897Z,20.80
2022-08-02T06:27:58.334Z,21.00
2022-08-02T06:30:26.907Z,21.20
2022-08-02T06:32:56.420Z,21.30
2022-08-02T06:35:36.491Z,21.40
2022-08-02T06:38:05.622Z,21.40
2022-08-02T06:40:38.490Z,21.50
2022-08-02T06:43:14.656Z,21.60
2022-08-02T06:45:43.028Z,21.70
2022-08-02T06:48:12.993Z,21.80
2022-08-02T06:50:42.098Z,21.90
2022-08-02T06:53:10.730Z,22.10
2022-08-02T06:55:43.490Z,22.20
2022-08-02T06:58:14.083Z,22.30
2022-08-02T07:00:44.271Z,22.50
2022-08-02T07:03:12.876Z,22.60
2022-08-02T07:05:42.292Z,22.70
2022-08-02T07:08:10.590Z,22.80
2022-08-02T07:10:38.788Z,22.90
2022-08-02T07:13:07.098Z,23.00
2022-08-02T07:15:36.967Z,23.10
2022-08-02T07:18:06.005Z,23.20
2022-08-02T07:20:34.325Z,23.30
2022-08-02T07:23:02.540Z,23.40
2022-08-02T07:26:02.605Z,23.50
2022-08-02T07:28:23.984Z,23.60
2022-08-02T07:30:54.346Z,23.80
2022-08-02T07:33:37.453Z,24.00
2022-08-02T07:36:09.928Z,24.10
2022-08-02T07:38:50.870Z,24.30
2022-08-02T07:41:19.153Z,24.40
2022-08-02T07:43:47.360Z,24.60
2022-08-02T07:46:16.957Z,24.70
2022-08-02T07:48:45.223Z,24.90
2022-08-02T07:51:17.198Z,25.00
2022-08-02T07:53:50.635Z,24.90
2022-08-02T07:56:20.228Z,25.00
2022-08-02T07:58:48.436Z,25.00
2022-08-02T08:01:18.449Z,25.00
2022-08-02T08:03:46.927Z,24.70
2022-08-02T08:06:15.166Z,24.70
2022-08-02T08:08:44.614Z,24.90
2022-08-02T08:11:13.038Z,25.10
2022-08-02T08:13:41.357Z,25.20
2022-08-02T08:16:09.598Z,25.40
2022-08-02T08:18:39.459Z,25.50
2022-08-02T08:21:07.696Z,25.60
2022-08-02T08:23:36.210Z,25.60
2022-08-02T08:26:04.488Z,25.70
2022-08-02T08:28:32.786Z,25.80
2022-08-02T08:31:01.189Z,26.00
2022-08-02T08:33:29.769Z,26.20
2022-08-02T08:35:59.421Z,26.50
2022-08-02T08:38:30.886Z,26.70
2022-08-02T08:40:59.075Z,26.90
2022-08-02T08:43:27.287Z,27.00
2022-08-02T08:45:56.818Z,27.10
2022-08-02T08:48:31.258Z,27.40
2022-08-02T08:51:11.283Z,27.60
2022-08-02T08:53:44.465Z,27.90
2022-08-02T08:56:16.316Z,28.20
2022-08-02T08:58:47.307Z,28.10
2022-08-02T09:01:16.820Z,28.20
2022-08-02T09:03:46.236Z,28.40
2022-08-02T09:06:15.933Z,28.60
2022-08-02T09:08:44.183Z,28.70
2022-08-02T09:11:16.864Z,29.00
2022-08-02T09:13:53.928Z,29.10
2022-08-02T09:16:34.869Z,29.40
2022-08-02T09:19:18.481Z,29.70
2022-08-02T09:21:50.065Z,30.00
2022-08-02T09:24:20.661Z,30.60
2022-08-02T09:26:50.992Z,30.90
2022-08-02T09:29:23.499Z,31.40
2022-08-02T09:32:03.773Z,31.80
2022-08-02T09:34:49.065Z,32.10
2022-08-02T09:37:26.704Z,32.60
2022-08-02T09:39:58.017Z,32.60
2022-08-02T09:42:30.221Z,32.90
2022-08-02T09:45:01.391Z,33.50
2022-08-02T09:47:31.415Z,34.10
2022-08-02T09:50:00.227Z,34.60
2022-08-02T09:52:36.833Z,35.00
2022-08-02T09:55:13.330Z,35.20
2022-08-02T09:57:41.830Z,35.30
2022-08-02T10:00:14.335Z,35.80
2022-08-02T10:03:08.169Z,36.00
2022-08-02T10:05:56.347Z,36.30
2022-08-02T10:08:33.019Z,36.60
2022-08-02T10:11:03.202Z,36.60
2022-08-02T10:13:33.623Z,36.80
2022-08-02T10:16:03.492Z,37.00
2022-08-02T10:18:41.352Z,37.10
2022-08-02T10:21:16.369Z,37.30
2022-08-02T10:23:47.744Z,37.80
2022-08-02T10:26:19.004Z,38.30
2022-08-02T10:28:50.458Z,38.30
2022-08-02T10:31:25.623Z,38.20
2022-08-02T10:33:57.273Z,38.10
2022-08-02T10:36:27.994Z,38.30
2022-08-02T10:38:59.576Z,38.60
2022-08-02T10:41:44.046Z,38.80
2022-08-02T10:44:29.607Z,38.80
2022-08-02T10:47:24.839Z,38.90
2022-08-02T10:49:56.705Z,38.80
2022-08-02T10:52:25.932Z,39.20
2022-08-02T10:55:00.563Z,39.70
2022-08-02T10:57:30.878Z,40.10
2022-08-02T11:00:03.817Z,40.00
2022-08-02T11:02:41.901Z,40.00
2022-08-02T11:05:28.871Z,40.20
2022-08-02T11:08:21.144Z,40.30
2022-08-02T11:10:50.813Z,40.90
2022-08-02T11:13:20.486Z,41.30
2022-08-02T11:15:56.823Z,40.70
2022-08-02T11:19:06.785Z,40.60
2022-08-02T11:21:37.125Z,40.40
2022-08-02T11:24:30.487Z,40.00
2022-08-02T11:27:03.111Z,40.50
2022-08-02T11:29:40.718Z,40.90
2022-08-02T11:32:17.223Z,41.20
2022-08-02T11:34:49.012Z,41.70
2022-08-02T11:37:29.629Z,42.10
2022-08-02T11:39:57.866Z,42.10
2022-08-02T11:42:34.852Z,42.30
2022-08-02T11:45:03.737Z,40.70
2022-08-02T11:47:32.578Z,40.80
2022-08-02T11:50:12.030Z,40.90
2022-08-02T11:52:40.321Z,41.20
2022-08-02T11:55:10.671Z,41.50
2022-08-02T11:58:01.496Z,41.70
2022-08-02T12:00:30.496Z,41.90
2022-08-02T12:02:59.335Z,42.30
2022-08-02T12:06:02.810Z,42.70
2022-08-02T12:08:19.313Z,42.80
2022-08-02T12:10:51.596Z,42.70
2022-08-02T12:13:21.149Z,42.70
2022-08-02T12:15:49.518Z,42.50
2022-08-02T12:18:39.117Z,42.20
2022-08-02T12:21:23.512Z,42.20
2022-08-02T12:24:00.559Z,41.80
2022-08-02T12:26:30.239Z,41.20
2022-08-02T12:29:01.375Z,40.70
2022-08-02T12:31:56.898Z,40.50
2022-08-02T12:34:29.868Z,40.40
2022-08-02T12:37:07.090Z,40.10
2022-08-02T12:39:39.698Z,40.30
2022-08-02T12:42:10.553Z,40.60
2022-08-02T12:44:52.213Z,40.90
2022-08-02T12:47:21.852Z,41.20
2022-08-02T12:50:16.389Z,41.20
2022-08-02T12:52:47.167Z,41.40
2022-08-02T12:56:01.955Z,41.10
2022-08-02T12:58:14.946Z,41.40
2022-08-02T13:00:55.722Z,41.80
2022-08-02T13:04:10.375Z,41.50
2022-08-02T13:06:41.138Z,40.20
2022-08-02T13:09:01.681Z,38.60
2022-08-02T13:11:30.324Z,38.90
2022-08-02T13:13:58.536Z,39.20
2022-08-02T13:16:31.243Z,39.20
2022-08-02T13:19:00.039Z,39.80
2022-08-02T13:21:40.244Z,39.90
2022-08-02T13:24:23.249Z,39.60
2022-08-02T13:26:59.533Z,39.70
2022-08-02T13:29:33.468Z,40.20
2022-08-02T13:32:03.042Z,40.60
2022-08-02T13:34:31.787Z,40.60
2022-08-02T13:37:00.214Z,40.20
2022-08-02T13:39:28.418Z,39.80
2022-08-02T13:41:56.684Z,39.70
2022-08-02T13:44:24.891Z,39.30
2022-08-02T13:46:53.157Z,38.90
2022-08-02T13:49:51.112Z,38.30
2022-08-02T13:52:11.668Z,37.90
2022-08-02T13:54:40.388Z,37.60
2022-08-02T13:57:08.942Z,37.40
2022-08-02T13:59:57.739Z,37.30
2022-08-02T14:02:25.591Z,37.10
2022-08-02T14:04:55.350Z,36.60
2022-08-02T14:07:23.729Z,36.30
2022-08-02T14:09:52.053Z,35.80
2022-08-02T14:12:20.871Z,35.40
2022-08-02T14:14:49.132Z,35.10
2022-08-02T14:17:18.745Z,34.90
2022-08-02T14:19:47.066Z,34.80
2022-08-02T14:22:16.680Z,34.80
2022-08-02T14:24:45.278Z,34.90
2022-08-02T14:27:13.610Z,34.90
2022-08-02T14:29:41.861Z,34.90
2022-08-02T14:32:10.853Z,34.70
2022-08-02T14:34:39.353Z,34.50
2022-08-02T14:37:07.632Z,34.30
2022-08-02T14:39:43.135Z,34.20
2022-08-02T14:42:25.889Z,34.10
2022-08-02T14:44:54.212Z,34.10
2022-08-02T14:47:22.693Z,34.00
2022-08-02T14:49:51.063Z,34.00
2022-08-02T14:52:19.846Z,34.00
2022-08-02T14:54:49.619Z,33.90
2022-08-02T14:57:17.994Z,33.60
2022-08-02T14:59:47.212Z,33.50
2022-08-02T15:02:16.078Z,33.50
2022-08-02T15:04:44.593Z,33.40
2022-08-02T15:07:14.661Z,33.30
2022-08-02T15:09:42.962Z,33.20
2022-08-02T15:12:13.643Z,33.00
2022-08-02T15:14:42.723Z,32.60
2022-08-02T15:17:11.736Z,32.50
2022-08-02T15:19:58.884Z,32.40
2022-08-02T15:22:29.363Z,32.50
2022-08-02T15:24:59.575Z,32.60
2022-08-02T15:27:29.254Z,32.60
2022-08-02T15:30:00.353Z,32.60
2022-08-02T15:32:29.003Z,32.70
2022-08-02T15:34:57.289Z,32.60
2022-08-02T15:37:25.979Z,32.60
2022-08-02T15:40:00.214Z,32.50
2022-08-02T15:42:30.437Z,32.30
2022-08-02T15:45:00.336Z,32.20
2022-08-02T15:47:28.652Z,32.10
2022-08-02T15:49:56.924Z,31.90
2022-08-02T15:52:27.266Z,31.80
2022-08-02T15:54:55.787Z,31.70
2022-08-02T15:57:24.219Z,31.60
2022-08-02T15:59:54.116Z,31.50
2022-08-02T16:02:22.821Z,31.50
2022-08-02T16:04:51.247Z,31.50
2022-08-02T16:07:19.428Z,31.40
2022-08-02T16:09:47.737Z,31.40
2022-08-02T16:12:16.384Z,31.30
2022-08-02T16:14:45.614Z,31.30
2022-08-02T16:17:15.366Z,31.30
2022-08-02T16:20:03.968Z,31.30
2022-08-02T16:22:32.209Z,31.30
2022-08-02T16:25:00.465Z,31.30
2022-08-02T16:27:28.667Z,31.30
2022-08-02T16:29:59.080Z,31.30
2022-08-02T16:32:28.650Z,31.30
2022-08-02T16:35:08.030Z,31.20
2022-08-02T16:37:50.342Z,31.20
2022-08-02T16:40:21.086Z,31.20
2022-08-02T16:42:51.032Z,31.10
2022-08-02T16:45:21.411Z,31.10
2022-08-02T16:50:40.734Z,30.90
2022-08-02T16:53:17.681Z,30.90
2022-08-02T16:56:03.431Z,30.80
2022-08-02T16:58:31.675Z,30.70
2022-08-02T17:00:59.998Z,30.60
2022-08-02T17:03:55.426Z,30.50
2022-08-02T17:06:18.312Z,30.50
2022-08-02T17:08:54.207Z,30.40
2022-08-02T17:11:23.952Z,30.40
2022-08-02T17:13:52.827Z,30.30
2022-08-02T17:16:25.886Z,30.20
2022-08-02T17:18:57.466Z,30.10
2022-08-02T17:21:25.653Z,30.00
2022-08-02T17:24:07.627Z,29.90
2022-08-02T17:26:38.039Z,29.80
2022-08-02T17:29:16.232Z,29.70
2022-08-02T17:32:12.855Z,29.60
2022-08-02T17:34:37.713Z,29.40
2022-08-02T17:37:11.429Z,29.30
2022-08-02T17:39:44.305Z,29.30
2022-08-02T17:42:23.210Z,29.20
2022-08-02T17:44:53.561Z,29.10
2022-08-02T17:47:22.126Z,29.00
2022-08-02T17:49:52.786Z,29.00
2022-08-02T17:52:51.737Z,28.90
2022-08-02T17:55:14.313Z,28.70
2022-08-02T17:57:57.234Z,28.70
2022-08-02T18:00:34.344Z,28.60
2022-08-02T18:03:06.286Z,28.50
2022-08-02T18:05:53.166Z,28.50
2022-08-02T18:08:23.283Z,28.40
2022-08-02T18:10:52.399Z,28.30
2022-08-02T18:13:20.994Z,28.20
2022-08-02T18:15:52.267Z,28.10
2022-08-02T18:18:29.731Z,28.00
2022-08-02T18:21:15.374Z,28.00
2022-08-02T18:23:48.740Z,27.90
2022-08-02T18:26:27.302Z,27.80
2022-08-02T18:28:56.028Z,27.70
2022-08-02T18:31:25.068Z,27.60
2022-08-02T18:34:01.441Z,27.50
2022-08-02T18:36:32.907Z,27.40
2022-08-02T18:39:08.387Z,27.30
2022-08-02T18:41:38.147Z,27.30
2022-08-02T18:44:07.158Z,27.20
2022-08-02T18:46:35.709Z,27.10
2022-08-02T18:49:06.645Z,27.00
2022-08-02T18:51:44.952Z,26.90
2022-08-02T18:54:13.200Z,26.70
2022-08-02T18:56:47.138Z,26.60
2022-08-02T18:59:16.012Z,26.50
2022-08-02T19:01:50.455Z,26.40
2022-08-02T19:04:27.778Z,26.40
2022-08-02T19:07:07.592Z,26.20
2022-08-02T19:09:39.979Z,26.10
2022-08-02T19:12:11.275Z,26.00
2022-08-02T19:14:40.029Z,25.90
2022-08-02T19:17:16.082Z,25.70
2022-08-02T19:19:56.754Z,25.60
2022-08-02T19:22:27.285Z,25.50
2022-08-02T19:25:01.170Z,25.40
2022-08-02T19:27:32.420Z,25.30
2022-08-02T19:30:02.783Z,25.20
2022-08-02T19:32:42.755Z,25.10
2022-08-02T19:35:30.421Z,25.00
2022-08-02T19:38:09.225Z,24.90
2022-08-02T19:40:38.910Z,24.70
2022-08-02T19:44:27.028Z,24.60
2022-08-02T19:45:57.553Z,24.50
2022-08-02T19:48:27.025Z,24.40
2022-08-02T19:51:01.093Z,24.30
2022-08-02T19:53:46.872Z,24.20
2022-08-02T19:56:21.769Z,24.10
2022-08-02T19:58:55.632Z,24.00
2022-08-02T20:01:37.006Z,23.90
2022-08-02T20:06:57.257Z,23.70
2022-08-02T20:09:33.533Z,23.60
2022-08-02T20:12:16.009Z,23.40
2022-08-02T20:17:33.783Z,23.30
2022-08-02T20:20:01.983Z,23.10
2022-08-02T20:22:30.320Z,23.00
2022-08-02T20:25:00.290Z,22.90
2022-08-02T20:27:30.264Z,22.80
2022-08-02T20:29:59.139Z,22.70
2022-08-02T20:32:29.211Z,22.60
2022-08-02T20:34:58.167Z,22.50
2022-08-02T20:38:00.302Z,22.40
2022-08-02T20:40:21.632Z,22.30
2022-08-02T20:42:50.064Z,22.20
2022-08-02T20:45:23.206Z,22.10
2022-08-02T20:47:52.528Z,22.00
2022-08-02T20:50:39.372Z,21.90
2022-08-02T20:53:08.898Z,21.90
2022-08-02T20:55:55.939Z,21.80
2022-08-02T20:58:26.784Z,21.80
2022-08-02T21:00:59.068Z,21.70
2022-08-02T21:03:38.887Z,21.60
2022-08-02T21:06:09.365Z,21.50
2022-08-02T21:08:38.347Z,21.50
2022-08-02T21:11:13.869Z,21.40
2022-08-02T21:13:47.127Z,21.40
2022-08-02T21:16:33.017Z,21.30
2022-08-02T21:19:02.264Z,21.30
2022-08-02T21:21:30.809Z,21.20
2022-08-02T21:24:01.491Z,21.20
2022-08-02T21:26:38.648Z,21.10
2022-08-02T21:29:09.194Z,21.00
2022-08-02T21:31:37.866Z,21.00
2022-08-02T21:34:26.697Z,20.90
2022-08-02T21:36:56.612Z,20.90
2022-08-02T21:39:27.279Z,20.80
2022-08-02T21:41:57.405Z,20.80
2022-08-02T21:44:25.802Z,20.70
2022-08-02T21:46:56.560Z,20.70
2022-08-02T21:50:09.647Z,20.70
2022-08-02T21:52:16.008Z,20.60
2022-08-02T21:54:45.193Z,20.50
2022-08-02T21:57:16.658Z,20.50
2022-08-02T21:59:46.767Z,20.50
2022-08-02T22:02:16.372Z,20.40
2022-08-02T22:04:50.675Z,20.30
2022-08-02T22:07:23.574Z,20.30
2022-08-02T22:09:52.894Z,20.20
2022-08-02T22:12:26.482Z,20.10
2022-08-02T22:14:57.638Z,20.10
2022-08-02T22:17:52.574Z,20.00
2022-08-02T22:20:20.175Z,20.00
2022-08-02T22:22:50.534Z,19.90
2022-08-02T22:25:26.704Z,19.90
2022-08-02T22:28:36.561Z,19.80
2022-08-02T22:30:57.446Z,19.70
2022-08-02T22:33:47.224Z,19.70
2022-08-02T22:36:29.864Z,19.60
2022-08-02T22:38:58.426Z,19.60
2022-08-02T22:42:05.949Z,19.50
2022-08-02T22:44:18.513Z,19.50
2022-08-02T22:46:50.284Z,19.50
2022-08-02T22:49:38.862Z,19.40
2022-08-02T22:52:07.861Z,19.40
2022-08-02T22:54:36.322Z,19.30
2022-08-02T22:57:06.539Z,19.30
2022-08-02T22:58:49.481Z,31.00
2022-08-02T22:58:54.319Z,23.80
2022-08-02T22:58:54.954Z,23.30
2022-08-02T22:59:41.536Z,19.20
2022-08-02T23:02:10.687Z,19.20
2022-08-02T23:04:39.354Z,19.20
2022-08-02T23:07:07.744Z,19.10
2022-08-02T23:09:36.098Z,19.10
2022-08-02T23:12:05.663Z,19.10
2022-08-02T23:14:34.384Z,19.10
2022-08-02T23:17:21.260Z,19.00
2022-08-02T23:19:52.554Z,19.00
2022-08-02T23:22:29.267Z,18.90
2022-08-02T23:24:59.607Z,18.90
2022-08-02T23:27:29.448Z,18.80
2022-08-02T23:29:58.024Z,18.80
2022-08-02T23:32:28.294Z,18.70
2022-08-02T23:34:57.698Z,18.70
2022-08-02T23:37:26.329Z,18.70
2022-08-02T23:39:54.585Z,18.60
2022-08-02T23:42:25.115Z,18.60
2022-08-02T23:44:53.502Z,18.50
2022-08-02T23:47:22.061Z,18.50
2022-08-02T23:49:51.974Z,18.50
2022-08-02T23:52:20.168Z,18.40
2022-08-02T23:54:48.335Z,18.40
2022-08-02T23:57:20.377Z,18.30
2022-08-02T23:59:51.517Z,18.30
